Time;durP1;ratioP1;P1;durP2;ratioP2;P2;SDS_P1;SDS_P2;PMS_P1;PMS_P2;Temp;Humidity;BMP_temperature;BMP_pressure;BME280_temperature;BME280_humidity;BME280_pressure;Samples;Min_cycle;Max_cycle;Signal;HPM_P1;HPM_P2
2022/09/09 00:01:13;;;;;;;12.93;6.35;;;;;;;25.40;60.17;100785.13;5025076;28;20581;-81
2022/09/09 00:03:46;;;;;;;16.95;5.20;;;;;;;25.11;59.63;100749.53;5026184;28;20045;-81
2022/09/09 00:06:25;;;;;;;14.77;5.55;;;;;;;25.20;59.87;100780.78;5025811;28;20540;-80
2022/09/09 00:09:12;;;;;;;14.23;4.28;;;;;;;25.24;59.47;100781.97;5025328;28;20103;-80
2022/09/09 00:12:03;;;;;;;11.98;3.85;;;;;;;25.27;59.02;100786.97;5025627;28;20492;-81
2022/09/09 00:14:48;;;;;;;10.23;3.38;;;;;;;25.22;57.70;100761.50;5026458;28;20067;-81
2022/09/09 00:17:26;;;;;;;12.93;3.15;;;;;;;25.34;57.20;100760.53;5027061;28;20055;-82
2022/09/09 00:20:11;;;;;;;13.10;4.22;;;;;;;25.50;56.87;100785.38;5027041;28;20053;-80
2022/09/09 00:22:45;;;;;;;9.93;4.10;;;;;;;25.53;56.91;100787.63;5026619;28;20440;-81
2022/09/09 00:25:21;;;;;;;10.60;3.90;;;;;;;25.70;56.14;100780.47;5025653;28;20052;-82
2022/09/09 00:27:50;;;;;;;10.85;4.15;;;;;;;25.00;56.14;100671.53;5025940;28;20143;-82
2022/09/09 00:30:26;;;;;;;12.63;4.00;;;;;;;25.64;56.28;100770.56;5026483;28;20568;-82
2022/09/09 00:33:02;;;;;;;11.00;4.65;;;;;;;24.06;57.04;100550.59;5026869;28;20060;-81
2022/09/09 00:35:34;;;;;;;14.00;4.30;;;;;;;24.90;57.29;100686.50;5040472;28;20049;-83
2022/09/09 00:38:10;;;;;;;19.80;4.85;;;;;;;25.38;57.76;100767.13;5026268;28;20462;-82
2022/09/09 00:40:45;;;;;;;14.15;4.60;;;;;;;25.32;57.99;100773.50;5041674;28;20057;-82
2022/09/09 00:43:35;;;;;;;10.98;4.47;;;;;;;25.20;58.43;100771.81;5024141;28;20168;-82
2022/09/09 00:46:29;;;;;;;12.77;5.00;;;;;;;25.14;58.81;100773.50;5026207;28;20049;-80
2022/09/09 00:49:09;;;;;;;15.90;6.32;;;;;;;25.09;58.87;100773.38;5024728;28;20050;-82
2022/09/09 00:51:54;;;;;;;17.17;6.30;;;;;;;25.04;59.78;100775.94;5025330;28;20483;-80
2022/09/09 00:54:43;;;;;;;9.40;5.35;;;;;;;24.98;60.05;100760.53;5026092;28;20052;-80
2022/09/09 00:57:31;;;;;;;19.23;5.82;;;;;;;24.86;60.48;100755.88;5025708;28;20474;-81
2022/09/09 01:00:00;;;;;;;11.63;4.90;;;;;;;24.08;60.71;100662.38;5026552;28;20037;-80
2022/09/09 01:02:29;;;;;;;13.30;5.47;;;;;;;24.76;61.05;100765.59;5024795;28;20053;-81
2022/09/09 01:05:07;;;;;;;22.50;6.53;;;;;;;24.66;61.32;100761.56;5026469;28;20053;-81
2022/09/09 01:07:34;;;;;;;12.30;5.50;;;;;;;24.64;61.37;100765.56;5026163;28;20046;-81
2022/09/09 01:10:08;;;;;;;11.82;6.38;;;;;;;24.47;61.85;100752.56;5041282;28;20053;-81
2022/09/09 01:12:41;;;;;;;10.77;6.28;;;;;;;24.56;62.35;100779.41;5024762;28;20045;-81
2022/09/09 01:15:12;;;;;;;10.45;5.30;;;;;;;24.48;62.39;100773.19;5025136;28;20315;-81
2022/09/09 01:17:45;;;;;;;18.13;6.88;;;;;;;24.43;62.54;100778.44;5027043;28;20051;-82
2022/09/09 01:20:20;;;;;;;16.90;6.78;;;;;;;24.47;62.39;100793.25;5028848;28;20140;-83
2022/09/09 01:23:15;;;;;;;10.10;7.50;;;;;;;24.41;63.07;100788.69;5033213;28;20049;-82
2022/09/09 01:26:15;;;;;;;15.88;7.00;;;;;;;24.31;63.63;100788.38;5032043;28;20069;-80
2022/09/09 01:28:47;;;;;;;15.48;7.70;;;;;;;24.26;63.59;100785.50;5026171;28;20148;-81
2022/09/09 01:31:22;;;;;;;16.02;7.85;;;;;;;23.68;63.98;100700.63;5025133;28;20041;-82
2022/09/09 01:33:49;;;;;;;11.02;7.28;;;;;;;23.90;64.56;100746.38;5024335;28;20096;-83
2022/09/09 01:36:33;;;;;;;14.30;8.43;;;;;;;24.17;64.48;100784.94;5024003;28;20076;-82
2022/09/09 01:38:59;;;;;;;11.77;8.60;;;;;;;23.94;65.13;100782.03;5006668;28;20412;-81
2022/09/09 01:41:27;;;;;;;16.50;9.85;;;;;;;23.80;65.68;100760.41;5003655;28;20061;-81
2022/09/09 01:43:55;;;;;;;18.85;8.50;;;;;;;23.83;66.05;100772.69;5004271;28;20046;-82
2022/09/09 01:46:23;;;;;;;13.32;8.93;;;;;;;23.57;66.26;100736.59;5004489;28;20045;-82
2022/09/09 01:48:52;;;;;;;24.08;9.60;;;;;;;23.65;66.82;100760.69;5012368;28;20401;-81
2022/09/09 01:51:22;;;;;;;18.88;9.23;;;;;;;23.66;66.74;100775.91;5024276;28;20050;-81
2022/09/09 01:53:49;;;;;;;20.63;9.10;;;;;;;23.34;66.96;100722.78;5023620;28;20053;-81
2022/09/09 01:56:18;;;;;;;18.23;9.27;;;;;;;23.73;66.95;100778.59;5024397;28;20050;-81
2022/09/09 01:58:57;;;;;;;17.13;9.52;;;;;;;23.53;67.18;100759.75;5025222;28;20760;-82
2022/09/09 02:01:42;;;;;;;17.52;9.30;;;;;;;23.17;67.63;100711.63;5027684;28;20347;-80
2022/09/09 02:04:19;;;;;;;12.40;8.95;;;;;;;23.30;67.59;100726.94;5027449;28;20049;-81
2022/09/09 02:06:47;;;;;;;18.55;10.20;;;;;;;23.27;67.89;100727.41;5028231;28;20053;-82
2022/09/09 02:09:18;;;;;;;14.82;8.88;;;;;;;23.59;67.38;100785.97;5042921;28;20045;-81
2022/09/09 02:11:49;;;;;;;18.55;9.35;;;;;;;23.56;67.64;100780.97;5026358;28;20053;-81
2022/09/09 02:14:24;;;;;;;17.15;8.57;;;;;;;23.12;67.49;100714.97;5026367;28;20051;-80
2022/09/09 02:16:59;;;;;;;18.75;9.77;;;;;;;23.41;67.93;100765.00;5026523;28;20057;-82
2022/09/09 02:19:30;;;;;;;20.02;9.68;;;;;;;23.09;67.83;100715.41;5026565;28;20154;-80
2022/09/09 02:22:00;;;;;;;23.83;10.15;;;;;;;23.21;67.67;100727.22;5026691;28;20495;-80
2022/09/09 02:24:30;;;;;;;17.17;9.63;;;;;;;23.45;67.51;100762.72;5028032;28;20416;-81
2022/09/09 02:27:00;;;;;;;21.13;8.32;;;;;;;23.42;67.59;100763.13;5027060;28;20404;-81
2022/09/09 02:29:38;;;;;;;24.30;10.02;;;;;;;23.41;67.68;100761.47;5028356;28;20274;-81
2022/09/09 02:32:11;;;;;;;23.60;9.50;;;;;;;23.10;67.79;100710.81;5028017;28;20095;-80
2022/09/09 02:34:43;;;;;;;13.48;8.40;;;;;;;23.15;67.70;100730.78;5027243;28;20045;-80
2022/09/09 02:37:11;;;;;;;12.90;8.80;;;;;;;23.02;68.40;100722.72;5029385;28;20233;-80
2022/09/09 02:39:38;;;;;;;17.67;9.70;;;;;;;23.31;68.10;100759.25;5026361;28;20644;-80
2022/09/09 02:42:05;;;;;;;18.00;9.48;;;;;;;23.17;67.86;100733.28;5042211;28;20529;-81
2022/09/09 02:44:32;;;;;;;18.38;8.30;;;;;;;23.23;67.96;100744.09;5026285;28;20401;-80
2022/09/09 02:47:19;;;;;;;18.85;9.45;;;;;;;23.40;67.45;100767.94;5026219;28;20142;-81
2022/09/09 02:50:05;;;;;;;21.90;9.45;;;;;;;23.36;67.68;100759.44;5027441;28;20554;-80
2022/09/09 02:52:50;;;;;;;19.55;9.30;;;;;;;23.33;67.74;100767.16;5025824;28;20323;-80
2022/09/09 02:55:27;;;;;;;17.48;8.60;;;;;;;22.98;68.00;100718.78;5025810;28;20075;-81
2022/09/09 02:57:56;;;;;;;23.08;8.57;;;;;;;22.96;67.87;100728.97;5025582;28;20056;-82
2022/09/09 03:00:27;;;;;;;18.52;8.82;;;;;;;23.03;68.32;100760.44;5042157;28;20054;-81
2022/09/09 03:02:54;;;;;;;;;;;;;;;23.06;68.45;100759.16;5027447;28;20049;-81
2022/09/09 03:05:21;;;;;;;18.85;7.40;;;;;;;23.03;68.46;100757.72;5026649;28;20367;-80
2022/09/09 03:07:47;;;;;;;14.68;8.00;;;;;;;23.03;67.92;100743.34;5026448;28;20087;-81
2022/09/09 03:10:14;;;;;;;18.00;8.43;;;;;;;23.04;67.31;100715.22;5041642;28;20067;-81
2022/09/09 03:12:40;;;;;;;17.52;8.43;;;;;;;22.97;66.86;100700.88;5026137;28;20100;-81
2022/09/09 03:15:07;;;;;;;15.93;8.55;;;;;;;23.32;66.73;100762.78;5025471;28;20501;-81
2022/09/09 03:17:34;;;;;;;22.58;9.10;;;;;;;23.12;67.13;100747.47;5042414;28;20056;-81
2022/09/09 03:20:03;;;;;;;17.40;9.32;;;;;;;22.98;67.30;100724.19;5025496;28;20289;-81
2022/09/09 03:22:30;;;;;;;26.48;9.90;;;;;;;22.62;66.96;100655.19;5028060;28;20141;-81
2022/09/09 03:24:56;;;;;;;19.25;8.15;;;;;;;23.25;67.21;100763.66;5033852;28;20508;-82
2022/09/09 03:27:23;;;;;;;12.52;7.43;;;;;;;22.03;67.34;100575.09;5029557;28;20045;-82
2022/09/09 03:29:52;;;;;;;18.02;8.93;;;;;;;23.01;66.69;100704.81;5025934;28;20041;-81
2022/09/09 03:32:22;;;;;;;16.58;8.15;;;;;;;23.20;66.78;100747.19;5041483;28;20053;-81
2022/09/09 03:34:51;;;;;;;14.57;7.20;;;;;;;23.33;66.65;100748.22;5025292;28;20049;-80
2022/09/09 03:37:20;;;;;;;25.48;9.15;;;;;;;23.31;66.10;100740.28;5023927;28;20041;-81
2022/09/09 03:39:46;;;;;;;15.30;8.85;;;;;;;23.17;66.73;100728.69;5023890;28;20045;-81
2022/09/09 03:42:14;;;;;;;22.17;8.95;;;;;;;23.38;66.42;100765.47;5025269;28;20056;-81
2022/09/09 03:44:41;;;;;;;23.00;9.45;;;;;;;22.94;66.88;100709.41;5026268;28;20216;-81
2022/09/09 03:47:08;;;;;;;20.92;9.25;;;;;;;22.93;67.05;100696.91;5024917;28;20073;-81
2022/09/09 03:49:34;;;;;;;19.23;7.95;;;;;;;23.27;67.13;100759.88;5025023;28;20041;-81
2022/09/09 03:52:01;;;;;;;12.98;7.65;;;;;;;23.14;67.50;100755.38;5025142;28;20089;-82
2022/09/09 03:54:28;;;;;;;15.32;8.20;;;;;;;22.86;67.54;100715.06;5025739;28;20053;-82
2022/09/09 03:56:54;;;;;;;12.30;7.72;;;;;;;23.02;68.03;100753.34;5025273;28;20237;-81
2022/09/09 03:59:21;;;;;;;20.45;8.35;;;;;;;23.04;68.00;100750.44;5024610;28;20056;-83
2022/09/09 04:01:48;;;;;;;10.52;7.75;;;;;;;22.33;67.56;100630.38;5025567;28;20053;-81
2022/09/09 04:04:14;;;;;;;13.70;6.85;;;;;;;23.03;67.93;100743.34;5024909;28;20555;-81
2022/09/09 04:06:41;;;;;;;22.70;7.78;;;;;;;23.01;68.03;100756.25;5024651;28;20060;-82
2022/09/09 04:09:08;;;;;;;17.67;7.25;;;;;;;22.95;68.07;100748.97;5024709;28;20079;-81
2022/09/09 04:11:34;;;;;;;15.55;8.63;;;;;;;22.40;68.60;100677.16;5025995;28;20144;-82
2022/09/09 04:14:01;;;;;;;22.25;8.95;;;;;;;22.34;68.86;100680.69;5024069;28;20103;-81
2022/09/09 04:16:28;;;;;;;15.73;7.97;;;;;;;22.70;68.77;100744.28;5024309;28;20449;-82
2022/09/09 04:18:55;;;;;;;14.35;8.57;;;;;;;22.21;69.11;100669.91;5024633;28;20416;-81
2022/09/09 04:21:23;;;;;;;14.20;7.57;;;;;;;22.64;68.78;100718.06;5023970;28;20239;-80
2022/09/09 04:23:49;;;;;;;15.98;7.47;;;;;;;21.64;68.70;100560.63;5024362;28;20475;-82
2022/09/09 04:26:16;;;;;;;26.80;9.35;;;;;;;21.39;68.83;100525.31;5024265;28;20049;-82
2022/09/09 04:28:42;;;;;;;18.00;7.95;;;;;;;21.69;68.64;100568.94;5024892;28;20124;-83
2022/09/09 04:31:16;;;;;;;12.75;7.97;;;;;;;22.29;68.72;100666.16;5024416;28;20091;-82
2022/09/09 04:33:42;;;;;;;15.57;8.45;;;;;;;22.54;68.92;100709.56;5025095;28;20061;-82
2022/09/09 04:36:09;;;;;;;23.05;8.82;;;;;;;22.05;69.04;100633.31;5024485;28;20041;-82
2022/09/09 04:38:36;;;;;;;25.95;9.02;;;;;;;22.20;69.02;100654.72;5024977;28;20140;-80
2022/09/09 04:41:02;;;;;;;18.88;8.35;;;;;;;22.70;68.93;100738.03;5040895;28;20045;-81
2022/09/09 04:43:30;;;;;;;19.17;8.40;;;;;;;22.44;68.21;100677.53;5024367;28;20111;-82
2022/09/09 04:45:59;;;;;;;14.50;7.72;;;;;;;22.78;68.18;100722.38;5024233;28;20107;-81
2022/09/09 04:48:26;;;;;;;13.30;7.40;;;;;;;22.83;68.26;100732.56;5025135;28;20050;-80
2022/09/09 04:51:04;;;;;;;18.13;8.32;;;;;;;22.67;67.99;100717.66;5024053;28;20096;-80
2022/09/09 04:53:31;;;;;;;16.70;8.70;;;;;;;22.75;68.77;100740.94;5023699;28;20053;-81
2022/09/09 04:56:10;;;;;;;19.45;8.75;;;;;;;22.04;68.63;100631.66;5024397;28;20580;-81
2022/09/09 04:58:39;;;;;;;27.13;10.27;;;;;;;22.02;68.63;100638.31;5025127;28;20056;-79
2022/09/09 05:01:10;;;;;;;20.92;7.55;;;;;;;22.59;68.96;100736.81;5029060;28;20139;-80
2022/09/09 05:03:37;;;;;;;12.27;7.53;;;;;;;22.64;69.06;100742.41;5024823;28;20057;-81
2022/09/09 05:06:09;;;;;;;13.65;8.20;;;;;;;22.66;69.08;100743.03;5024486;28;20235;-81
2022/09/09 05:08:40;;;;;;;17.10;7.60;;;;;;;22.54;68.68;100701.44;5024772;28;20111;-80
2022/09/09 05:11:15;;;;;;;16.10;8.70;;;;;;;22.70;68.88;100736.16;5024582;28;20061;-81
2022/09/09 05:13:42;;;;;;;20.73;8.50;;;;;;;22.65;69.12;100718.88;5005674;28;20133;-80
2022/09/09 05:16:10;;;;;;;20.60;9.02;;;;;;;22.86;68.59;100744.84;5005056;28;20526;-81
2022/09/09 05:18:39;;;;;;;24.42;8.07;;;;;;;22.70;68.02;100711.81;5021584;28;20141;-81
2022/09/09 05:21:06;;;;;;;20.70;9.65;;;;;;;22.77;68.38;100731.56;5004869;28;20133;-82
2022/09/09 05:23:33;;;;;;;26.73;10.63;;;;;;;22.70;68.02;100722.63;5005107;28;20049;-81
2022/09/09 05:26:02;;;;;;;18.90;9.68;;;;;;;22.60;68.03;100711.44;4959497;28;20061;-81
2022/09/09 05:28:30;;;;;;;16.63;7.63;;;;;;;22.62;67.63;100712.00;4954035;28;20308;-82
2022/09/09 05:31:00;;;;;;;25.98;10.20;;;;;;;22.03;67.65;100619.16;4942309;28;20297;-81
2022/09/09 05:33:27;;;;;;;22.67;10.63;;;;;;;22.89;67.66;100757.94;4990408;28;20049;-80
2022/09/09 05:36:03;;;;;;;18.90;9.18;;;;;;;22.71;67.38;100726.97;5026511;28;20049;-80
2022/09/09 05:38:30;;;;;;;20.38;8.93;;;;;;;22.98;67.42;100762.94;4998029;28;20060;-80
2022/09/09 05:40:57;;;;;;;25.27;9.90;;;;;;;22.44;67.12;100679.41;4991542;28;20201;-80
2022/09/09 05:43:25;;;;;;;18.35;10.13;;;;;;;22.48;67.01;100697.72;4990017;28;20104;-79
2022/09/09 05:46:04;;;;;;;29.13;10.85;;;;;;;22.03;66.22;100623.75;5006218;28;20097;-80
2022/09/09 05:48:37;;;;;;;20.08;10.10;;;;;;;21.76;66.06;100575.97;5011531;28;20092;-79
2022/09/09 05:51:06;;;;;;;26.30;9.20;;;;;;;22.79;66.46;100732.19;5012658;28;20474;-79
2022/09/09 05:53:36;;;;;;;21.15;9.23;;;;;;;23.03;66.66;100765.84;5029426;28;20047;-80
2022/09/09 05:56:12;;;;;;;19.70;10.50;;;;;;;22.94;66.47;100752.75;5028054;28;20045;-80
2022/09/09 05:58:39;;;;;;;21.55;8.77;;;;;;;23.12;66.78;100774.53;5028227;28;20049;-79
2022/09/09 06:01:14;;;;;;;16.08;9.07;;;;;;;23.16;67.10;100773.06;5028828;28;20508;-79
2022/09/09 06:03:42;;;;;;;20.05;9.32;;;;;;;22.94;66.71;100722.97;5047576;28;20090;-79
2022/09/09 06:06:12;;;;;;;26.05;10.50;;;;;;;23.14;67.20;100753.50;5047592;28;20467;-79
2022/09/09 06:08:42;;;;;;;21.52;9.50;;;;;;;23.20;66.83;100751.78;5047806;28;20057;-79
2022/09/09 06:11:14;;;;;;;22.45;10.10;;;;;;;23.41;66.39;100783.16;5047552;28;20114;-80
2022/09/09 06:13:41;;;;;;;24.25;9.70;;;;;;;23.36;65.88;100764.00;5047376;28;20123;-79
2022/09/09 06:16:14;;;;;;;23.60;9.18;;;;;;;23.16;65.14;100720.78;5048019;28;20045;-80
2022/09/09 06:18:42;;;;;;;18.40;7.97;;;;;;;23.49;65.58;100754.97;5049251;28;20195;-79
2022/09/09 06:21:15;;;;;;;31.00;10.05;;;;;;;22.50;64.99;100581.16;5050831;28;20063;-82
2022/09/09 06:23:44;;;;;;;26.15;9.27;;;;;;;23.17;65.45;100676.41;5046221;28;20081;-78
2022/09/09 06:26:19;;;;;;;20.70;9.02;;;;;;;23.27;65.04;100686.78;5048613;28;20083;-81
2022/09/09 06:28:50;;;;;;;19.80;10.65;;;;;;;23.77;65.14;100760.88;5047587;28;20558;-82
2022/09/09 06:31:21;;;;;;;25.42;11.82;;;;;;;23.82;64.94;100757.50;5048830;28;20114;-80
2022/09/09 06:33:54;;;;;;;22.95;10.75;;;;;;;23.92;64.97;100752.41;5048835;28;20049;-80
2022/09/09 06:36:29;;;;;;;27.95;10.05;;;;;;;23.78;64.31;100718.31;5046911;28;20542;-81
2022/09/09 06:38:56;;;;;;;24.45;10.02;;;;;;;24.04;64.32;100758.78;5048155;28;20499;-78
2022/09/09 06:41:28;;;;;;;20.23;9.27;;;;;;;24.01;64.78;100745.66;5047061;28;20037;-81
2022/09/09 06:43:55;;;;;;;21.77;9.07;;;;;;;24.14;64.94;100760.97;5046957;28;20408;-81
2022/09/09 06:46:27;;;;;;;23.75;8.45;;;;;;;24.16;65.00;100755.34;5046204;28;20052;-81
2022/09/09 06:48:55;;;;;;;26.00;9.75;;;;;;;24.23;65.08;100769.69;5063952;28;20437;-82
2022/09/09 06:51:24;;;;;;;17.73;8.07;;;;;;;24.34;64.59;100759.97;5047038;28;20052;-82
2022/09/09 06:53:52;;;;;;;20.90;9.70;;;;;;;24.37;64.12;100763.06;5047223;28;20057;-75
2022/09/09 06:56:27;;;;;;;21.50;9.32;;;;;;;24.23;64.07;100727.09;5046451;28;20045;-80
2022/09/09 06:58:56;;;;;;;17.60;7.68;;;;;;;24.48;64.32;100756.94;5046951;28;20061;-81
2022/09/09 07:01:27;;;;;;;10.38;5.80;;;;;;;24.60;63.29;100761.63;5039973;28;20135;-81
2022/09/09 07:03:57;;;;;;;19.45;7.35;;;;;;;24.20;63.46;100672.47;5026815;28;20413;-80
2022/09/09 07:06:26;;;;;;;15.00;7.63;;;;;;;24.57;62.65;100721.38;5043639;28;20056;-81
2022/09/09 07:08:54;;;;;;;22.80;8.90;;;;;;;24.73;61.95;100723.44;5048567;28;20048;-80
2022/09/09 07:11:26;;;;;;;23.10;9.68;;;;;;;24.41;62.06;100682.03;5030355;28;20133;-82
2022/09/09 07:13:53;;;;;;;19.80;7.95;;;;;;;24.52;62.37;100698.44;5026974;28;20041;-82
2022/09/09 07:16:24;;;;;;;22.20;8.60;;;;;;;24.66;63.03;100717.28;5043295;28;20203;-80
2022/09/09 07:18:52;;;;;;;22.75;9.55;;;;;;;24.92;62.98;100754.13;5035581;28;20049;-80
2022/09/09 07:21:20;;;;;;;22.88;8.40;;;;;;;25.01;63.36;100754.66;5027667;28;20055;-81
2022/09/09 07:23:47;;;;;;;26.20;8.88;;;;;;;24.85;63.40;100720.81;5025787;28;20053;-80
2022/09/09 07:26:19;;;;;;;14.13;7.85;;;;;;;24.93;62.90;100737.63;5025886;28;20057;-81
2022/09/09 07:28:46;;;;;;;23.02;9.90;;;;;;;25.09;62.94;100762.50;5042589;28;20091;-80
2022/09/09 07:31:20;;;;;;;27.35;10.43;;;;;;;24.97;63.46;100731.75;5060520;28;20057;-80
2022/09/09 07:33:48;;;;;;;19.73;7.60;;;;;;;25.07;63.54;100745.59;5046256;28;20053;-79
2022/09/09 07:36:26;;;;;;;21.48;8.80;;;;;;;25.13;63.25;100741.97;5032649;28;20481;-80
2022/09/09 07:39:05;;;;;;;23.52;8.25;;;;;;;25.28;62.38;100747.03;5027956;28;20049;-80
2022/09/09 07:41:35;;;;;;;20.17;8.23;;;;;;;25.32;62.23;100751.78;5026319;28;20057;-80
2022/09/09 07:44:08;;;;;;;23.77;8.07;;;;;;;25.27;62.11;100732.63;5025906;28;20061;-80
2022/09/09 07:46:35;;;;;;;18.70;6.85;;;;;;;25.47;61.60;100750.53;5010009;28;20127;-80
2022/09/09 07:49:03;;;;;;;15.75;5.90;;;;;;;24.78;61.22;100628.59;5031419;28;20061;-80
2022/09/09 07:51:36;;;;;;;12.70;5.78;;;;;;;25.62;60.86;100740.03;5045538;28;20045;-81
2022/09/09 07:54:05;;;;;;;13.93;4.82;;;;;;;25.02;59.57;100642.25;5045733;28;20048;-81
2022/09/09 07:56:33;;;;;;;12.43;5.53;;;;;;;25.72;59.25;100745.72;5047615;28;20111;-80
2022/09/09 07:59:00;;;;;;;12.73;5.25;;;;;;;25.63;58.26;100719.94;5046089;28;20080;-80
2022/09/09 08:01:30;;;;;;;11.40;4.13;;;;;;;25.74;58.13;100715.59;5036028;28;20358;-80
2022/09/09 08:04:00;;;;;;;9.18;4.18;;;;;;;25.63;57.23;100660.13;5026904;28;20136;-80
2022/09/09 08:06:34;;;;;;;18.20;4.20;;;;;;;26.21;55.65;100740.13;5026564;28;20077;-80
2022/09/09 08:09:02;;;;;;;13.32;3.50;;;;;;;26.18;52.34;100706.06;5026163;28;20079;-80
2022/09/09 08:11:30;;;;;;;12.82;3.00;;;;;;;26.62;50.32;100738.38;5027321;28;20139;-80
2022/09/09 08:14:04;;;;;;;10.13;2.70;;;;;;;26.74;49.03;100732.91;5026670;28;20103;-81
2022/09/09 08:16:36;;;;;;;12.48;2.70;;;;;;;26.58;49.13;100710.81;5043435;28;20051;-80
2022/09/09 08:19:07;;;;;;;9.82;3.20;;;;;;;26.36;49.63;100668.91;5027217;28;20050;-79
2022/09/09 08:21:39;;;;;;;7.78;2.83;;;;;;;26.15;49.12;100635.00;5041921;28;20057;-81
2022/09/09 08:24:08;;;;;;;17.33;3.42;;;;;;;26.23;50.15;100654.50;5042267;28;20485;-76
2022/09/09 08:26:41;;;;;;;10.18;2.90;;;;;;;25.97;48.33;100570.66;5030675;28;20046;-80
2022/09/09 08:29:10;;;;;;;7.13;2.83;;;;;;;26.79;47.60;100703.03;5044572;28;20459;-79
2022/09/09 08:31:42;;;;;;;10.32;2.30;;;;;;;26.93;47.90;100725.41;5044391;28;20059;-79
2022/09/09 08:34:10;;;;;;;15.50;3.20;;;;;;;26.44;47.98;100653.03;5026379;28;20038;-79
2022/09/09 08:36:42;;;;;;;7.32;2.85;;;;;;;26.93;48.24;100712.59;5026381;28;20144;-80
2022/09/09 08:39:10;;;;;;;10.43;2.88;;;;;;;26.83;47.53;100677.00;5026169;28;20045;-79
2022/09/09 08:42:03;;;;;;;11.25;3.35;;;;;;;26.99;46.59;100684.41;5024472;28;20425;-81
2022/09/09 08:44:41;;;;;;;8.70;2.70;;;;;;;27.51;46.72;100742.59;5025817;28;20041;-81
2022/09/09 08:47:32;;;;;;;10.38;3.15;;;;;;;27.48;46.23;100736.56;5025358;28;20065;-80
2022/09/09 08:50:29;;;;;;;6.75;2.88;;;;;;;27.60;45.27;100735.66;5043962;28;20527;-81
2022/09/09 08:53:17;;;;;;;4.57;1.95;;;;;;;27.04;45.20;100649.06;5044000;28;20056;-79
2022/09/09 08:55:48;;;;;;;7.70;2.67;;;;;;;26.42;45.20;100559.09;5059932;28;20397;-80
2022/09/09 08:58:25;;;;;;;4.97;2.55;;;;;;;27.69;44.77;100742.34;5043042;28;20160;-79
2022/09/09 09:01:10;;;;;;;9.45;3.00;;;;;;;27.75;44.02;100741.38;5037069;28;20048;-80
2022/09/09 09:03:41;;;;;;;8.32;1.92;;;;;;;27.90;42.79;100728.00;5042839;28;20661;-79
2022/09/09 09:07:05;;;;;;;7.97;2.53;;;;;;;27.72;43.88;100698.25;5044917;28;20120;-81
2022/09/09 09:09:46;;;;;;;14.82;3.10;;;;;;;27.87;44.42;100703.16;4989559;28;20148;-80
2022/09/09 09:12:18;;;;;;;;;;;;;;;28.05;48.80;100734.78;4991063;28;20592;-79
2022/09/09 09:14:47;;;;;;;14.05;4.88;;;;;;;27.89;49.80;100710.00;5032421;28;19991;-82
2022/09/09 09:17:16;;;;;;;14.60;4.35;;;;;;;27.56;51.05;100661.72;5048634;28;20041;-81
2022/09/09 09:19:44;;;;;;;15.80;4.97;;;;;;;27.98;51.48;100736.84;5048390;28;20139;-82
2022/09/09 09:22:31;;;;;;;9.85;4.18;;;;;;;27.81;51.69;100718.56;5049610;28;20059;-82
2022/09/09 09:25:17;;;;;;;10.82;4.22;;;;;;;27.41;51.84;100645.94;5050196;28;20147;-81
2022/09/09 09:28:01;;;;;;;25.75;4.85;;;;;;;28.04;50.37;100738.59;5049428;28;20557;-82
2022/09/09 09:30:46;;;;;;;12.98;4.72;;;;;;;28.16;50.92;100730.28;5049888;28;20055;-82
2022/09/09 09:33:25;;;;;;;13.95;3.88;;;;;;;28.25;48.47;100729.63;5049199;28;20052;-81
2022/09/09 09:35:53;;;;;;;8.32;3.85;;;;;;;28.11;47.90;100690.16;5054227;28;20045;-82
2022/09/09 09:38:26;;;;;;;10.45;3.88;;;;;;;28.50;47.91;100736.56;5039330;28;20536;-80
2022/09/09 09:41:13;;;;;;;12.40;4.60;;;;;;;28.12;48.03;100669.94;5031571;28;20049;-82
2022/09/09 09:43:42;;;;;;;14.98;4.47;;;;;;;28.88;46.77;100734.84;5034058;28;20103;-81
2022/09/09 09:46:23;;;;;;;8.98;3.85;;;;;;;28.78;48.09;100732.81;5044824;28;20064;-80
2022/09/09 09:49:08;;;;;;;9.07;3.78;;;;;;;28.01;49.09;100619.03;5047701;28;20045;-82
2022/09/09 09:51:36;;;;;;;7.80;3.33;;;;;;;28.74;48.05;100732.53;5048028;28;20436;-83
2022/09/09 09:54:21;;;;;;;10.60;3.65;;;;;;;28.90;47.62;100719.03;5048204;28;20045;-79
2022/09/09 09:56:48;;;;;;;6.95;3.63;;;;;;;28.94;46.71;100710.06;5047985;28;20557;-81
2022/09/09 09:59:33;;;;;;;9.57;3.88;;;;;;;29.10;46.91;100741.16;5048386;28;20063;-82
2022/09/09 10:02:25;;;;;;;9.45;4.22;;;;;;;29.17;47.08;100741.78;5046801;28;20106;-82
2022/09/09 10:05:13;;;;;;;10.85;4.15;;;;;;;29.08;46.67;100721.47;5046321;28;20049;-81
2022/09/09 10:07:40;;;;;;;6.50;3.58;;;;;;;29.24;46.86;100735.28;5047204;28;20519;-81
2022/09/09 10:10:20;;;;;;;10.05;3.75;;;;;;;29.18;45.29;100721.56;5047565;28;20080;-81
2022/09/09 10:13:00;;;;;;;12.25;4.03;;;;;;;29.17;44.46;100730.03;5047470;28;20049;-82
2022/09/09 10:16:26;;;;;;;14.38;3.80;;;;;;;29.46;44.46;100727.84;5041269;28;20306;-81
2022/09/09 10:19:35;;;;;;;11.40;4.03;;;;;;;29.58;43.51;100682.00;4982563;28;20067;-84
2022/09/09 10:22:20;;;;;;;14.80;4.90;;;;;;;29.96;45.26;100729.41;4980971;28;20127;-80
2022/09/09 10:24:46;;;;;;;15.30;4.85;;;;;;;30.17;44.73;100722.16;5035266;28;20052;-80
2022/09/09 10:27:25;;;;;;;12.70;4.13;;;;;;;30.43;43.98;100746.97;5026569;28;20100;-79
2022/09/09 10:30:10;;;;;;;14.02;3.75;;;;;;;30.62;43.43;100722.69;5027409;28;20476;-82
2022/09/09 10:32:41;;;;;;;6.95;3.55;;;;;;;30.52;43.63;100712.53;5027632;28;20129;-80
2022/09/09 10:35:48;;;;;;;12.30;4.45;;;;;;;30.74;42.78;100725.22;5027227;28;20497;-80
2022/09/09 10:38:28;;;;;;;13.07;4.30;;;;;;;30.77;43.70;100728.22;5044239;28;20052;-80
2022/09/09 10:40:56;;;;;;;15.67;4.83;;;;;;;30.87;42.78;100719.25;5041445;28;20075;-80
2022/09/09 10:43:41;;;;;;;13.70;4.22;;;;;;;31.04;42.96;100724.50;5047097;28;20773;-80
2022/09/09 10:46:13;;;;;;;8.15;4.22;;;;;;;31.04;42.67;100727.25;5047535;28;20063;-80
2022/09/09 10:48:49;;;;;;;13.48;4.10;;;;;;;30.69;43.30;100684.91;5043042;28;20045;-81
2022/09/09 10:51:27;;;;;;;6.05;3.85;;;;;;;30.62;42.18;100709.00;5041804;28;20122;-81
2022/09/09 10:54:29;;;;;;;9.13;4.00;;;;;;;30.79;41.59;100723.31;5047116;28;20076;-81
2022/09/09 10:57:08;;;;;;;6.75;3.50;;;;;;;30.78;42.35;100680.56;5030591;28;20055;-81
2022/09/09 10:59:43;;;;;;;12.70;3.35;;;;;;;30.98;41.13;100717.38;5046612;28;20057;-82
2022/09/09 11:02:09;;;;;;;10.57;3.92;;;;;;;30.86;41.43;100712.97;5046426;28;20053;-82
2022/09/09 11:04:54;;;;;;;6.43;3.10;;;;;;;30.67;41.72;100723.53;5047776;28;20059;-82
2022/09/09 11:07:29;;;;;;;9.93;3.17;;;;;;;30.49;41.72;100674.72;5046568;28;20057;-82
2022/09/09 11:10:02;;;;;;;6.95;3.50;;;;;;;30.43;41.03;100627.28;5062912;28;20139;-82
2022/09/09 11:12:30;;;;;;;7.55;3.90;;;;;;;31.16;41.23;100708.63;5046304;28;20052;-81
2022/09/09 11:15:17;;;;;;;6.82;2.97;;;;;;;31.21;40.64;100674.94;5046752;28;20137;-81
2022/09/09 11:17:53;;;;;;;7.07;2.80;;;;;;;31.52;40.04;100684.03;5047663;28;20110;-82
2022/09/09 11:20:38;;;;;;;7.90;2.90;;;;;;;31.12;38.83;100602.53;5046208;28;20494;-83
2022/09/09 11:23:13;;;;;;;7.50;3.42;;;;;;;30.85;38.31;100582.50;5046249;28;20083;-82
2022/09/09 11:25:45;;;;;;;7.40;2.50;;;;;;;31.70;38.48;100699.94;5045748;28;20055;-81
2022/09/09 11:28:38;;;;;;;8.43;3.00;;;;;;;32.01;37.02;100686.19;5045903;28;20168;-81
2022/09/09 11:31:21;;;;;;;6.93;3.00;;;;;;;32.21;37.42;100693.59;5045732;28;20061;-81
2022/09/09 11:34:09;;;;;;;11.98;2.97;;;;;;;31.77;36.36;100609.09;5047246;28;20056;-80
2022/09/09 11:36:44;;;;;;;7.47;2.50;;;;;;;32.47;36.23;100697.06;5047048;28;20128;-80
2022/09/09 11:39:29;;;;;;;14.85;2.97;;;;;;;32.84;35.56;100701.31;5063378;28;20333;-81
2022/09/09 11:42:26;;;;;;;6.97;2.60;;;;;;;32.85;34.37;100658.16;5062885;28;20091;-81
2022/09/09 11:44:54;;;;;;;8.05;2.85;;;;;;;33.24;33.71;100699.47;5036902;28;20041;-82
2022/09/09 11:47:30;;;;;;;5.20;2.35;;;;;;;33.52;33.73;100705.28;5029625;28;20057;-81
2022/09/09 11:50:30;;;;;;;10.07;2.85;;;;;;;33.83;32.16;100706.69;5044877;28;20412;-81